Time;durP1;ratioP1;P1;durP2;ratioP2;P2;SDS_P1;SDS_P2;PMS_P1;PMS_P2;Temp;Humidity;BMP_temperature;BMP_pressure;BME280_temperature;BME280_humidity;BME280_pressure;Samples;Min_cycle;Max_cycle;Signal;HPM_P1;HPM_P2
2022/06/23 00:00:35;;;;;;;;;17.75;16.75;;;;;-149.35;100.00;64108.03;5015174;28;45570;-48
2022/06/23 00:03:02;;;;;;;;;25.80;23.20;;;;;-149.35;100.00;64108.03;5013233;28;45603;-48
2022/06/23 00:05:29;;;;;;;;;18.80;17.00;;;;;-149.35;100.00;64108.03;5013739;28;45413;-48
2022/06/23 00:07:56;;;;;;;;;18.20;18.20;;;;;-149.35;100.00;64108.03;5015434;28;45442;-47
2022/06/23 00:10:45;;;;;;;;;26.20;23.20;;;;;-149.35;100.00;64108.03;5013604;28;46164;-48
2022/06/23 00:13:16;;;;;;;;;23.20;21.80;;;;;-149.35;100.00;64108.03;5014740;28;45483;-50
2022/06/23 00:15:43;;;;;;;;;24.60;22.00;;;;;-149.35;100.00;64108.03;5015055;28;45728;-49
2022/06/23 00:18:19;;;;;;;;;16.20;14.00;;;;;-149.35;100.00;64108.03;5014141;28;45445;-48
2022/06/23 00:20:53;;;;;;;;;27.00;23.80;;;;;-149.35;100.00;64108.03;5013676;28;46105;-50
2022/06/23 00:23:21;;;;;;;;;19.60;19.60;;;;;-149.35;100.00;64108.03;5014697;28;45484;-47
2022/06/23 00:26:12;;;;;;;;;24.00;21.00;;;;;-149.35;100.00;64108.03;5013721;28;45473;-51
2022/06/23 00:28:51;;;;;;;;;22.80;19.20;;;;;-149.35;100.00;64108.03;5015321;28;45361;-47
2022/06/23 00:31:35;;;;;;;;;19.20;18.00;;;;;-149.35;100.00;64108.03;4998191;28;46959;-49
2022/06/23 00:34:03;;;;;;;;;21.80;19.80;;;;;-149.35;100.00;64108.03;5015107;28;45318;-52
2022/06/23 00:36:49;;;;;;;;;24.40;20.20;;;;;-149.35;100.00;64108.03;5013755;28;45419;-50
2022/06/23 00:39:48;;;;;;;;;21.60;20.40;;;;;-149.35;100.00;64108.03;4999182;28;45483;-48
2022/06/23 00:42:30;;;;;;;;;20.00;17.00;;;;;-149.35;100.00;64108.03;5003179;28;46716;-49
2022/06/23 00:45:11;;;;;;;;;19.20;18.00;;;;;-149.35;100.00;64108.03;5014931;28;45273;-50
2022/06/23 00:47:53;;;;;;;;;21.00;20.60;;;;;-149.35;100.00;64108.03;5014776;28;45378;-49
2022/06/23 00:50:21;;;;;;;;;21.20;19.80;;;;;-149.35;100.00;64108.03;4998092;28;45488;-49
2022/06/23 00:52:50;;;;;;;;;22.00;21.60;;;;;-149.35;100.00;64108.03;5014357;28;45767;-46
2022/06/23 00:55:38;;;;;;;;;20.00;20.00;;;;;-149.35;100.00;64108.03;5015859;28;45417;-47
2022/06/23 00:58:16;;;;;;;;;20.20;19.60;;;;;-149.35;100.00;64108.03;4989485;28;45546;-50
2022/06/23 01:00:41;;;;;;;;;20.40;19.40;;;;;-149.35;100.00;64108.03;5001148;28;45451;-49
2022/06/23 01:03:07;;;;;;;;;19.75;19.75;;;;;-149.35;100.00;64108.03;4999688;28;46036;-49
2022/06/23 01:05:36;;;;;;;;;18.75;17.50;;;;;-149.35;100.00;64108.03;5018083;28;45800;-52
2022/06/23 01:08:31;;;;;;;;;22.80;21.60;;;;;-149.35;100.00;64108.03;5016824;28;45414;-48
2022/06/23 01:11:01;;;;;;;;;20.00;18.00;;;;;-149.35;100.00;64108.03;5018106;28;45406;-49
2022/06/23 01:13:40;;;;;;;;;18.60;18.60;;;;;-149.35;100.00;64108.03;5016105;28;45514;-53
2022/06/23 01:16:42;;;;;;;;;22.60;19.40;;;;;-149.35;100.00;64108.03;5017562;28;45363;-49
2022/06/23 01:19:40;;;;;;;;;14.40;13.40;;;;;-149.35;100.00;64108.03;5017602;28;45611;-50
2022/06/23 01:22:11;;;;;;;;;19.60;19.60;;;;;-149.35;100.00;64108.03;5017632;28;45432;-49
2022/06/23 01:24:46;;;;;;;;;18.20;17.80;;;;;-149.35;100.00;64108.03;5016139;28;45809;-50
2022/06/23 01:27:25;;;;;;;;;20.60;20.60;;;;;-149.35;100.00;64108.03;4999985;28;45363;-48
2022/06/23 01:29:57;;;;;;;;;20.40;19.40;;;;;-149.35;100.00;64108.03;5016447;28;45323;-48
2022/06/23 01:32:23;;;;;;;;;16.20;16.20;;;;;-149.35;100.00;64108.03;5017472;28;45406;-50
2022/06/23 01:34:55;;;;;;;;;23.50;21.25;;;;;-149.35;100.00;64108.03;5017373;28;45888;-50
2022/06/23 01:37:23;;;;;;;;;24.20;22.40;;;;;-149.35;100.00;64108.03;5005426;28;45466;-46
2022/06/23 01:39:55;;;;;;;;;19.60;19.60;;;;;-149.35;100.00;64108.03;5004834;28;45551;-47
2022/06/23 01:42:33;;;;;;;;;20.40;18.80;;;;;-149.35;100.00;64108.03;5015960;28;45479;-49
2022/06/23 01:45:17;;;;;;;;;22.80;22.40;;;;;-149.35;100.00;64108.03;5016210;28;46040;-54
2022/06/23 01:47:47;;;;;;;;;27.80;26.40;;;;;-149.35;100.00;64108.03;5017084;28;45380;-52
2022/06/23 01:50:12;;;;;;;;;23.20;22.60;;;;;-149.35;100.00;64108.03;5015798;28;45370;-48
2022/06/23 01:52:38;;;;;;;;;26.50;24.75;;;;;-149.35;100.00;64108.03;5017264;28;45731;-48
2022/06/23 01:55:13;;;;;;;;;31.75;29.00;;;;;-149.35;100.00;64108.03;5015702;28;46834;-50
2022/06/23 01:57:42;;;;;;;;;24.80;21.60;;;;;-149.35;100.00;64108.03;5015975;28;45498;-49
2022/06/23 02:00:09;;;;;;;;;24.60;22.20;;;;;-149.35;100.00;64108.03;5015973;28;45462;-47
2022/06/23 02:02:56;;;;;;;;;24.60;23.00;;;;;-149.35;100.00;64108.03;5015613;28;45604;-49
2022/06/23 02:05:32;;;;;;;;;19.60;19.60;;;;;-149.35;100.00;64108.03;5016545;28;47013;-52
2022/06/23 02:08:24;;;;;;;;;27.80;27.40;;;;;-149.35;100.00;64108.03;5015676;28;45350;-48
2022/06/23 02:10:51;;;;;;;;;21.80;21.80;;;;;-149.35;100.00;64108.03;5015923;28;45406;-49
2022/06/23 02:13:21;;;;;;;;;23.80;21.80;;;;;-149.35;100.00;64108.03;5015764;28;45331;-49
2022/06/23 02:15:56;;;;;;;;;8.20;5.80;;;;;-149.35;100.00;64108.03;5015397;28;45459;-48
2022/06/23 02:18:23;;;;;;;;;26.80;25.60;;;;;-149.35;100.00;64108.03;5016710;28;45600;-52
2022/06/23 02:21:03;;;;;;;;;26.20;23.40;;;;;-149.35;100.00;64108.03;5015492;28;45505;-48
2022/06/23 02:23:31;;;;;;;;;28.00;24.80;;;;;-149.35;100.00;64108.03;4999468;28;45394;-51
2022/06/23 02:26:12;;;;;;;;;25.60;24.60;;;;;-149.35;100.00;64108.03;5016320;28;46360;-48
2022/06/23 02:29:08;;;;;;;;;27.40;26.20;;;;;-149.35;100.00;64108.03;5016574;28;45354;-50
2022/06/23 02:31:53;;;;;;;;;22.80;22.40;;;;;-149.35;100.00;64108.03;5013231;28;45377;-50
2022/06/23 02:34:22;;;;;;;;;24.60;22.40;;;;;-149.35;100.00;64108.03;5015430;28;45651;-49
2022/06/23 02:36:58;;;;;;;;;24.40;22.80;;;;;-149.35;100.00;64108.03;5015954;28;45723;-48
2022/06/23 02:39:46;;;;;;;;;19.00;17.20;;;;;-149.35;100.00;64108.03;5016418;28;45314;-49
2022/06/23 02:42:51;;;;;;;;;21.80;20.40;;;;;-149.35;100.00;64108.03;5008320;28;45373;-50
2022/06/23 02:46:08;;;;;;;;;21.60;20.60;;;;;-149.35;100.00;64108.03;4954728;28;45289;-47
2022/06/23 02:48:54;;;;;;;;;17.60;16.00;;;;;-149.35;100.00;64108.03;4981966;28;46530;-50
2022/06/23 02:51:25;;;;;;;;;10.20;10.00;;;;;-149.35;100.00;64108.03;5016297;28;45523;-48
2022/06/23 02:54:09;;;;;;;;;10.20;10.20;;;;;-149.35;100.00;64108.03;5014752;28;45441;-51
2022/06/23 02:56:44;;;;;;;;;11.00;9.20;;;;;-149.35;100.00;64108.03;5016517;28;45380;-48
2022/06/23 02:59:25;;;;;;;;;6.40;6.40;;;;;-149.35;100.00;64108.03;5014764;28;45806;-47
2022/06/23 03:02:16;;;;;;;;;7.60;7.00;;;;;-149.35;100.00;64108.03;5014750;28;45359;-48
2022/06/23 03:04:47;;;;;;;;;7.60;4.80;;;;;-149.35;100.00;64108.03;5014707;28;45519;-48
2022/06/23 03:07:13;;;;;;;;;7.40;4.60;;;;;-149.35;100.00;64108.03;5014910;28;45556;-51
2022/06/23 03:09:44;;;;;;;;;4.25;4.25;;;;;-149.35;100.00;64108.03;5016076;28;46738;-48
2022/06/23 03:12:21;;;;;;;;;4.00;4.00;;;;;-149.35;100.00;64108.03;5014629;28;45268;-47
2022/06/23 03:14:56;;;;;;;;;2.80;2.80;;;;;-149.35;100.00;64108.03;5014708;28;45424;-49
2022/06/23 03:17:34;;;;;;;;;6.20;4.00;;;;;-149.35;100.00;64108.03;5015374;28;45393;-46
2022/06/23 03:20:27;;;;;;;;;3.00;3.00;;;;;-149.35;100.00;64108.03;5015609;28;46610;-48
2022/06/23 03:23:05;;;;;;;;;3.00;3.00;;;;;-149.35;100.00;64108.03;5015545;28;45381;-49
2022/06/23 03:25:36;;;;;;;;;4.60;3.80;;;;;-149.35;100.00;64108.03;5014504;28;45376;-48
2022/06/23 03:28:04;;;;;;;;;3.20;3.20;;;;;-149.35;100.00;64108.03;5014518;28;45371;-54
2022/06/23 03:30:33;;;;;;;;;2.40;2.40;;;;;-149.35;100.00;64108.03;4998189;28;47381;-49
2022/06/23 03:33:20;;;;;;;;;5.00;3.40;;;;;-149.35;100.00;64108.03;5015678;28;45251;-48
2022/06/23 03:35:57;;;;;;;;;4.00;4.00;;;;;-149.35;100.00;64108.03;5015298;28;45300;-49
2022/06/23 03:44:08;;;;;;;;;1.80;1.80;;;;;-149.35;100.00;64108.03;5015830;28;45250;-50
2022/06/23 03:46:50;;;;;;;;;3.80;3.80;;;;;-149.35;100.00;64108.03;4999445;28;45329;-52
2022/06/23 03:49:30;;;;;;;;;5.00;3.60;;;;;-149.35;100.00;64108.03;5014307;28;45433;-48
2022/06/23 03:51:58;;;;;;;;;3.40;3.00;;;;;-149.35;100.00;64108.03;4967815;28;48460;-47
2022/06/23 03:54:50;;;;;;;;;4.40;3.40;;;;;-149.35;100.00;64108.03;4994252;28;45470;-48
2022/06/23 03:57:31;;;;;;;;;2.60;2.60;;;;;-149.35;100.00;64108.03;5010338;28;45861;-50
2022/06/23 04:00:01;;;;;;;;;4.20;4.20;;;;;-149.35;100.00;64108.03;4994607;28;45327;-48
2022/06/23 04:02:30;;;;;;;;;3.60;3.60;;;;;-149.35;100.00;64108.03;4995637;28;46388;-48
2022/06/23 04:04:55;;;;;;;;;4.00;3.60;;;;;-149.35;100.00;64108.03;4994437;28;45411;-49
2022/06/23 04:07:41;;;;;;;;;4.50;3.50;;;;;-149.35;100.00;64108.03;5005733;28;45767;-54
2022/06/23 04:10:08;;;;;;;;;3.40;3.40;;;;;-149.35;100.00;64108.03;5014941;28;45424;-52
2022/06/23 04:12:34;;;;;;;;;3.40;3.40;;;;;-149.35;100.00;64108.03;5013860;28;46735;-50
2022/06/23 04:15:12;;;;;;;;;3.80;3.00;;;;;-149.35;100.00;64108.03;5015343;28;45299;-47
2022/06/23 04:18:06;;;;;;;;;3.20;3.20;;;;;-149.35;100.00;64108.03;4999294;28;45451;-51
2022/06/23 04:20:32;;;;;;;;;3.20;3.20;;;;;-149.35;100.00;64108.03;5002043;28;45550;-50
2022/06/23 04:23:12;;;;;;;;;5.00;3.50;;;;;-149.35;100.00;64108.03;5014821;28;46481;-49
2022/06/23 04:26:07;;;;;;;;;4.60;4.20;;;;;-149.35;100.00;64108.03;5013664;28;45371;-48
2022/06/23 04:28:50;;;;;;;;;4.00;3.00;;;;;-149.35;100.00;64108.03;5009308;28;45334;-51
2022/06/23 04:31:19;;;;;;;;;5.40;3.40;;;;;-149.35;100.00;64108.03;5002674;28;45417;-51
2022/06/23 04:33:45;;;;;;;;;2.60;2.60;;;;;-149.35;100.00;64108.03;5016879;28;45682;-47
2022/06/23 04:36:20;;;;;;;;;3.00;3.00;;;;;-149.35;100.00;64108.03;5016863;28;45395;-48
2022/06/23 04:38:56;;;;;;;;;4.80;2.80;;;;;-149.35;100.00;64108.03;5001257;28;45379;-48
2022/06/23 04:41:41;;;;;;;;;3.20;3.20;;;;;-149.35;100.00;64108.03;5017142;28;45460;-50
2022/06/23 04:44:17;;;;;;;;;2.40;2.40;;;;;-149.35;100.00;64108.03;5003017;28;46143;-51
2022/06/23 04:47:02;;;;;;;;;2.20;2.20;;;;;-149.35;100.00;64108.03;5017962;28;45373;-48
2022/06/23 04:49:29;;;;;;;;;4.80;3.60;;;;;-149.35;100.00;64108.03;5016763;28;45525;-49
2022/06/23 04:52:01;;;;;;;;;4.40;3.60;;;;;-149.35;100.00;64108.03;5017161;28;45366;-54
2022/06/23 04:54:40;;;;;;;;;2.20;1.60;;;;;-149.35;100.00;64108.03;5000227;28;46814;-48
2022/06/23 04:57:13;;;;;;;;;6.40;4.80;;;;;-149.35;100.00;64108.03;5002334;28;45332;-49
2022/06/23 04:59:42;;;;;;;;;2.20;2.20;;;;;-149.35;100.00;64108.03;5016859;28;45374;-47
2022/06/23 05:02:16;;;;;;;;;3.00;2.60;;;;;-149.35;100.00;64108.03;5017136;28;45700;-51
2022/06/23 05:04:43;;;;;;;;;4.80;4.60;;;;;-149.35;100.00;64108.03;5017348;28;46770;-48
2022/06/23 05:07:31;;;;;;;;;3.80;3.00;;;;;-149.35;100.00;64108.03;5016722;28;45398;-52
2022/06/23 05:10:00;;;;;;;;;4.60;3.00;;;;;-149.35;100.00;64108.03;5016833;28;45374;-48
2022/06/23 05:12:34;;;;;;;;;3.60;3.00;;;;;-149.35;100.00;64108.03;5017016;28;45477;-46
2022/06/23 05:15:16;;;;;;;;;4.00;2.00;;;;;-149.35;100.00;64108.03;5017468;28;46281;-51
2022/06/23 05:17:57;;;;;;;;;2.80;2.60;;;;;-149.35;100.00;64108.03;5016501;28;45347;-49
2022/06/23 05:20:50;;;;;;;;;4.60;4.60;;;;;-149.35;100.00;64108.03;5017922;28;45310;-48
2022/06/23 05:23:20;;;;;;;;;3.20;2.40;;;;;-149.35;100.00;64108.03;5016981;28;45294;-48
2022/06/23 05:25:46;;;;;;;;;4.20;3.60;;;;;-149.35;100.00;64108.03;5017621;28;46720;-50
2022/06/23 05:28:15;;;;;;;;;3.00;3.00;;;;;-149.35;100.00;64108.03;5017983;28;45647;-49
2022/06/23 05:30:49;;;;;;;;;2.80;2.80;;;;;-149.35;100.00;64108.03;5016605;28;45299;-50
2022/06/23 05:33:17;;;;;;;;;8.20;4.00;;;;;-149.35;100.00;64108.03;5016992;28;45400;-50
2022/06/23 05:35:47;;;;;;;;;4.40;4.00;;;;;-149.35;100.00;64108.03;5016289;28;46495;-49
2022/06/23 05:38:37;;;;;;;;;4.80;3.00;;;;;-149.35;100.00;64108.03;5016660;28;45431;-47
2022/06/23 05:41:27;;;;;;;;;5.20;4.20;;;;;-149.35;100.00;64108.03;5017056;28;45330;-47
2022/06/23 05:43:54;;;;;;;;;5.80;3.80;;;;;-149.35;100.00;64108.03;5006167;28;46159;-50
2022/06/23 05:46:21;;;;;;;;;7.60;4.00;;;;;-149.35;100.00;64108.03;5016080;28;45877;-50
2022/06/23 05:49:15;;;;;;;;;4.40;3.40;;;;;-149.35;100.00;64108.03;4992767;28;45290;-47
2022/06/23 05:51:41;;;;;;;;;7.40;4.80;;;;;-149.35;100.00;64108.03;5004718;28;45335;-49
2022/06/23 05:54:11;;;;;;;;;5.25;4.50;;;;;-149.35;100.00;64108.03;4997467;28;45319;-47
2022/06/23 05:57:00;;;;;;;;;5.80;4.00;;;;;-149.35;100.00;64108.03;4996219;28;45346;-50
2022/06/23 05:59:31;;;;;;;;;5.00;5.00;;;;;-149.35;100.00;64108.03;4996344;28;45442;-47
2022/06/23 06:01:58;;;;;;;;;5.60;5.60;;;;;-149.35;100.00;64108.03;5012230;28;45369;-47
2022/06/23 06:04:51;;;;;;;;;7.80;4.80;;;;;-149.35;100.00;64108.03;5012625;28;45513;-46
2022/06/23 06:07:18;;;;;;;;;5.60;5.00;;;;;-149.35;100.00;64108.03;5002912;28;46752;-48
2022/06/23 06:09:44;;;;;;;;;7.20;5.00;;;;;-149.35;100.00;64108.03;5016267;28;45365;-48
2022/06/23 06:12:14;;;;;;;;;7.00;5.75;;;;;-149.35;100.00;64108.03;5017245;28;45345;-46
2022/06/23 06:14:49;;;;;;;;;5.60;4.60;;;;;-149.35;100.00;64108.03;5017441;28;45327;-49
2022/06/23 06:17:22;;;;;;;;;8.00;6.20;;;;;-149.35;100.00;64108.03;5017130;28;46927;-49
2022/06/23 06:19:49;;;;;;;;;8.20;7.00;;;;;-149.35;100.00;64108.03;4999399;28;45543;-45
2022/06/23 06:22:29;;;;;;;;;7.80;6.60;;;;;-149.35;100.00;64108.03;5015698;28;45756;-46
2022/06/23 06:24:54;;;;;;;;;2.40;2.40;;;;;-149.35;100.00;64108.03;5017238;28;45313;-50
2022/06/23 06:27:20;;;;;;;;;10.00;9.00;;;;;-149.35;100.00;64108.03;5014761;28;45549;-49
2022/06/23 06:29:45;;;;;;;;;9.00;6.25;;;;;-149.35;100.00;64108.03;5016910;28;45330;-48
2022/06/23 06:32:33;;;;;;;;;4.25;4.25;;;;;-149.35;100.00;64108.03;5015231;28;45378;-47
2022/06/23 06:35:06;;;;;;;;;5.40;4.80;;;;;-149.35;100.00;64108.03;5017099;28;45717;-47
2022/06/23 06:37:32;;;;;;;;;5.80;5.20;;;;;-149.35;100.00;64108.03;5016153;28;46558;-51
2022/06/23 06:39:58;;;;;;;;;8.80;7.80;;;;;-149.35;100.00;64108.03;5015305;28;45362;-49
2022/06/23 06:42:37;;;;;;;;;11.20;8.20;;;;;-149.35;100.00;64108.03;5015038;28;45391;-48
2022/06/23 06:45:06;;;;;;;;;10.40;7.00;;;;;-149.35;100.00;64108.03;5016817;28;45428;-48
2022/06/23 06:47:34;;;;;;;;;11.60;9.60;;;;;-149.35;100.00;64108.03;5014851;28;46436;-45
2022/06/23 06:50:05;;;;;;;;;11.00;8.20;;;;;-149.35;100.00;64108.03;5014794;28;45378;-48
2022/06/23 06:52:31;;;;;;;;;8.40;7.40;;;;;-149.35;100.00;64108.03;4999460;28;45558;-49
2022/06/23 06:55:03;;;;;;;;;6.50;6.00;;;;;-149.35;100.00;64108.03;4999073;28;45508;-48
2022/06/23 06:57:35;;;;;;;;;8.00;7.60;;;;;-149.35;100.00;64108.03;5013339;28;47694;-48
2022/06/23 07:00:07;;;;;;;;;7.80;7.00;;;;;-149.35;100.00;64108.03;5015079;28;45626;-54
2022/06/23 07:02:50;;;;;;;;;9.80;7.00;;;;;-149.35;100.00;64108.03;5015915;28;45333;-48
2022/06/23 07:05:18;;;;;;;;;5.40;4.40;;;;;-149.35;100.00;64108.03;5015204;28;45331;-50
2022/06/23 07:07:46;;;;;;;;;8.60;8.60;;;;;-149.35;100.00;64108.03;5015787;28;45670;-50
2022/06/23 07:10:17;;;;;;;;;6.40;5.00;;;;;-149.35;100.00;64108.03;5014853;28;45460;-49
2022/06/23 07:12:48;;;;;;;;;4.60;4.60;;;;;-149.35;100.00;64108.03;5014437;28;45353;-49
2022/06/23 07:15:29;;;;;;;;;11.00;7.20;;;;;-149.35;100.00;64108.03;5014832;28;45608;-48
2022/06/23 07:18:15;;;;;;;;;6.40;5.00;;;;;-149.35;100.00;64108.03;5014960;28;47503;-49
2022/06/23 07:21:10;;;;;;;;;8.00;7.60;;;;;-149.35;100.00;64108.03;5015393;28;45361;-49
2022/06/23 07:24:05;;;;;;;;;5.40;5.40;;;;;-149.35;100.00;64108.03;5015005;28;45599;-49
2022/06/23 07:26:51;;;;;;;;;8.60;7.80;;;;;-149.35;100.00;64108.03;4992631;28;45319;-50
2022/06/23 07:29:37;;;;;;;;;9.00;7.80;;;;;-149.35;100.00;64108.03;5010092;28;46911;-46
2022/06/23 07:32:24;;;;;;;;;6.80;6.80;;;;;-149.35;100.00;64108.03;5014862;28;45915;-46
2022/06/23 07:34:53;;;;;;;;;8.40;8.40;;;;;-149.35;100.00;64108.03;5013588;28;45436;-45
2022/06/23 07:37:30;;;;;;;;;7.60;6.40;;;;;-149.35;100.00;64108.03;5013986;28;45964;-48
2022/06/23 07:40:02;;;;;;;;;4.20;4.20;;;;;-149.35;100.00;64108.03;4997169;28;46587;-48
2022/06/23 07:43:00;;;;;;;;;8.00;6.00;;;;;-149.35;100.00;64108.03;5013949;28;45418;-48
2022/06/23 07:45:30;;;;;;;;;6.80;5.20;;;;;-149.35;100.00;64108.03;4999638;28;45461;-51
2022/06/23 07:47:56;;;;;;;;;8.80;8.80;;;;;-149.35;100.00;64108.03;5013797;28;45452;-49
2022/06/23 07:50:21;;;;;;;;;6.75;6.75;;;;;-149.35;100.00;64108.03;5007183;28;48564;-51
2022/06/23 07:52:47;;;;;;;;;7.25;5.25;;;;;-149.35;100.00;64108.03;5003891;28;45430;-50
2022/06/23 07:55:23;;;;;;;;;9.00;7.75;;;;;-149.35;100.00;64108.03;5013981;28;45426;-48
2022/06/23 07:57:48;;;;;;;;;6.20;5.40;;;;;-149.35;100.00;64108.03;4998610;28;45769;-48
2022/06/23 08:00:14;;;;;;;;;5.75;5.75;;;;;-149.35;100.00;64108.03;5009441;28;46602;-44
2022/06/23 08:02:51;;;;;;;;;6.25;6.25;;;;;-149.35;100.00;64108.03;5013171;28;45357;-46
2022/06/23 08:05:21;;;;;;;;;7.60;6.60;;;;;-149.35;100.00;64108.03;5017257;28;45383;-47
2022/06/23 08:07:47;;;;;;;;;5.20;5.20;;;;;-149.35;100.00;64108.03;5016311;28;45455;-48
2022/06/23 08:10:21;;;;;;;;;9.25;8.25;;;;;-149.35;100.00;64108.03;5017499;28;45448;-49
2022/06/23 08:12:53;;;;;;;;;6.80;5.00;;;;;-149.35;100.00;64108.03;5018581;28;45416;-46
2022/06/23 08:18:40;;;;;;;;;7.00;7.00;;;;;-149.35;100.00;64108.03;5004207;28;45481;-50
2022/06/23 08:21:15;;;;;;;;;7.80;6.60;;;;;-149.35;100.00;64108.03;5018666;28;46893;-49
2022/06/23 08:23:55;;;;;;;;;6.00;6.00;;;;;-149.35;100.00;64108.03;5018275;28;45456;-48
2022/06/23 08:26:21;;;;;;;;;8.60;7.60;;;;;-149.35;100.00;64108.03;5015878;28;45567;-50
2022/06/23 08:28:48;;;;;;;;;5.00;5.00;;;;;-149.35;100.00;64108.03;4999700;28;45460;-50
2022/06/23 08:31:13;;;;;;;;;7.40;6.20;;;;;-149.35;100.00;64108.03;5014101;28;45950;-49
2022/06/23 08:33:39;;;;;;;;;6.75;5.75;;;;;-149.35;100.00;64108.03;5015450;28;45388;-47
2022/06/23 08:36:11;;;;;;;;;4.25;4.25;;;;;-149.35;100.00;64108.03;5015443;28;46981;-52
2022/06/23 08:38:43;;;;;;;;;8.80;8.00;;;;;-149.35;100.00;64108.03;5016241;28;45496;-48
2022/06/23 08:41:35;;;;;;;;;6.20;6.20;;;;;-149.35;100.00;64108.03;5014825;28;46908;-47
2022/06/23 08:44:36;;;;;;;;;7.20;7.20;;;;;-149.35;100.00;64108.03;5029497;28;45336;-52
2022/06/23 08:47:22;;;;;;;;;7.40;7.40;;;;;-149.35;100.00;64108.03;5007535;28;45496;-50
2022/06/23 08:49:54;;;;;;;;;7.60;6.20;;;;;-149.35;100.00;64108.03;5017313;28;45356;-50
2022/06/23 08:52:32;;;;;;;;;8.20;6.60;;;;;-149.35;100.00;64108.03;4998199;28;46606;-47
2022/06/23 08:55:06;;;;;;;;;6.80;6.20;;;;;-149.35;100.00;64108.03;5014979;28;45579;-48
2022/06/23 08:57:45;;;;;;;;;10.60;8.40;;;;;-149.35;100.00;64108.03;5017548;28;45369;-48
2022/06/23 09:00:21;;;;;;;;;6.20;6.20;;;;;-149.35;100.00;64108.03;5016751;28;45354;-48
2022/06/23 09:02:51;;;;;;;;;7.80;5.40;;;;;-149.35;100.00;64108.03;5000036;28;46835;-50
2022/06/23 09:05:25;;;;;;;;;5.00;4.20;;;;;-149.35;100.00;64108.03;5015853;28;45461;-48
2022/06/23 09:07:51;;;;;;;;;6.00;5.00;;;;;-149.35;100.00;64108.03;5017782;28;45337;-48
2022/06/23 09:10:31;;;;;;;;;7.50;7.50;;;;;-149.35;100.00;64108.03;5015310;28;45215;-50
2022/06/23 09:13:02;;;;;;;;;6.80;6.20;;;;;-149.35;100.00;64108.03;5015088;28;46305;-53
2022/06/23 09:15:57;;;;;;;;;8.20;5.40;;;;;-149.35;100.00;64108.03;5016500;28;45856;-47
2022/06/23 09:18:41;;;;;;;;;7.20;7.20;;;;;-149.35;100.00;64108.03;5016693;28;45345;-51
2022/06/23 09:21:41;;;;;;;;;6.00;6.00;;;;;-149.35;100.00;64108.03;5017889;28;45367;-48
2022/06/23 09:24:44;;;;;;;;;10.40;8.00;;;;;-149.35;100.00;64108.03;5017501;28;46403;-50
2022/06/23 09:27:41;;;;;;;;;6.40;5.20;;;;;-149.35;100.00;64108.03;4983885;28;45508;-47
2022/06/23 09:30:25;;;;;;;;;8.20;8.00;;;;;-149.35;100.00;64108.03;5016583;28;45322;-50
2022/06/23 09:33:03;;;;;;;;;6.40;6.40;;;;;-149.35;100.00;64108.03;5018196;28;45345;-48
2022/06/23 09:35:44;;;;;;;;;6.60;6.60;;;;;-149.35;100.00;64108.03;5017327;28;46248;-48
2022/06/23 09:38:31;;;;;;;;;10.20;10.20;;;;;-149.35;100.00;64108.03;5016293;28;45397;-49
2022/06/23 09:41:27;;;;;;;;;10.00;10.00;;;;;-149.35;100.00;64108.03;5016439;28;45370;-50
2022/06/23 09:44:01;;;;;;;;;8.40;6.00;;;;;-149.35;100.00;64108.03;5017869;28;45294;-47
2022/06/23 09:46:32;;;;;;;;;7.20;6.00;;;;;-149.35;100.00;64108.03;5017535;28;45714;-52
2022/06/23 09:49:07;;;;;;;;;8.60;8.40;;;;;-149.35;100.00;64108.03;5017401;28;45361;-49
2022/06/23 09:51:52;;;;;;;;;11.20;9.00;;;;;-149.35;100.00;64108.03;5017622;28;45802;-48
2022/06/23 09:54:20;;;;;;;;;11.60;9.00;;;;;-149.35;100.00;64108.03;5016561;28;45376;-49
2022/06/23 09:56:46;;;;;;;;;17.20;13.00;;;;;-149.35;100.00;64108.03;5017137;28;46911;-50
2022/06/23 09:59:30;;;;;;;;;20.75;17.50;;;;;-149.35;100.00;64108.03;5017383;28;45300;-49
2022/06/23 10:02:27;;;;;;;;;11.00;8.20;;;;;-149.35;100.00;64108.03;5016488;28;45298;-49
2022/06/23 10:04:53;;;;;;;;;7.00;6.60;;;;;-149.35;100.00;64108.03;4999717;28;45390;-50
2022/06/23 10:07:56;;;;;;;;;8.75;8.25;;;;;-149.35;100.00;64108.03;5015864;28;45509;-46
2022/06/23 10:10:59;;;;;;;;;8.60;6.60;;;;;-149.35;100.00;64108.03;5017307;28;45614;-49
2022/06/23 10:13:37;;;;;;;;;7.00;6.00;;;;;-149.35;100.00;64108.03;5015014;28;45623;-51
2022/06/23 10:16:38;;;;;;;;;4.60;4.20;;;;;-149.35;100.00;64108.03;5016673;28;45316;-53
2022/06/23 10:19:28;;;;;;;;;9.00;8.00;;;;;-149.35;100.00;64108.03;5013574;28;45889;-48
2022/06/23 10:21:59;;;;;;;;;7.40;7.00;;;;;-149.35;100.00;64108.03;5016935;28;45320;-47
2022/06/23 10:24:30;;;;;;;;;5.40;5.40;;;;;-149.35;100.00;64108.03;4998950;28;45341;-48
2022/06/23 10:27:23;;;;;;;;;6.40;6.40;;;;;-149.35;100.00;64108.03;5015633;28;45466;-51
2022/06/23 10:29:49;;;;;;;;;7.80;7.00;;;;;-149.35;100.00;64108.03;5015524;28;46969;-47
2022/06/23 10:32:37;;;;;;;;;7.20;7.20;;;;;-149.35;100.00;64108.03;5016657;28;45405;-48
2022/06/23 10:35:19;;;;;;;;;7.20;7.20;;;;;-149.35;100.00;64108.03;5016823;28;45488;-50
2022/06/23 10:38:07;;;;;;;;;7.80;7.80;;;;;-149.35;100.00;64108.03;5015357;28;45843;-49
2022/06/23 10:41:12;;;;;;;;;8.40;7.40;;;;;-149.35;100.00;64108.03;5016586;28;45901;-50
2022/06/23 10:44:02;;;;;;;;;7.40;6.40;;;;;-149.35;100.00;64108.03;5014973;28;45522;-53
2022/06/23 10:46:34;;;;;;;;;5.20;5.20;;;;;-149.35;100.00;64108.03;5016681;28;45334;-51
2022/06/23 10:49:05;;;;;;;;;7.00;5.20;;;;;-149.35;100.00;64108.03;5015066;28;45370;-52
2022/06/23 10:52:03;;;;;;;;;5.80;5.80;;;;;-149.35;100.00;64108.03;4993075;28;46500;-47
2022/06/23 10:54:37;;;;;;;;;5.20;5.20;;;;;-149.35;100.00;64108.03;5011911;28;45528;-49
2022/06/23 10:57:41;;;;;;;;;6.20;6.20;;;;;-149.35;100.00;64108.03;5014261;28;45358;-49
2022/06/23 11:00:14;;;;;;;;;6.40;6.40;;;;;-149.35;100.00;64108.03;5013971;28;45399;-49
2022/06/23 11:02:58;;;;;;;;;7.20;7.00;;;;;-149.35;100.00;64108.03;5013921;28;45815;-51
2022/06/23 11:05:54;;;;;;;;;8.80;7.00;;;;;-149.35;100.00;64108.03;5014521;28;45392;-51
2022/06/23 11:09:09;;;;;;;;;5.80;5.80;;;;;-149.35;100.00;64108.03;5015797;28;45374;-48
2022/06/23 11:11:37;;;;;;;;;7.40;6.80;;;;;-149.35;100.00;64108.03;4954079;28;45661;-52
2022/06/23 11:14:03;;;;;;;;;6.20;6.20;;;;;-149.35;100.00;64108.03;5008327;28;46896;-47
2022/06/23 11:16:49;;;;;;;;;8.50;6.75;;;;;-149.35;100.00;64108.03;4987079;28;45331;-52
2022/06/23 11:19:27;;;;;;;;;5.20;5.20;;;;;-149.35;100.00;64108.03;5014653;28;45450;-51
2022/06/23 11:22:50;;;;;;;;;8.20;8.20;;;;;-149.35;100.00;64108.03;5015795;28;45538;-49
2022/06/23 11:25:30;;;;;;;;;7.00;5.40;;;;;-149.35;100.00;64108.03;4953928;28;46785;-48
2022/06/23 11:28:06;;;;;;;;;3.80;3.80;;;;;-149.35;100.00;64108.03;4992685;28;45502;-52
2022/06/23 11:30:47;;;;;;;;;6.00;6.00;;;;;-149.35;100.00;64108.03;5014695;28;45421;-51
2022/06/23 11:33:20;;;;;;;;;8.40;7.00;;;;;-149.35;100.00;64108.03;5016079;28;45347;-52
2022/06/23 11:36:18;;;;;;;;;6.80;6.80;;;;;-149.35;100.00;64108.03;5014280;28;45434;-46
2022/06/23 11:39:24;;;;;;;;;8.00;8.00;;;;;-149.35;100.00;64108.03;5015022;28;45405;-47
2022/06/23 11:42:08;;;;;;;;;6.20;6.20;;;;;-149.35;100.00;64108.03;4954508;28;45521;-46
2022/06/23 11:44:47;;;;;;;;;10.40;6.20;;;;;-149.35;100.00;64108.03;5013166;28;45555;-47
2022/06/23 11:47:31;;;;;;;;;6.00;5.00;;;;;-149.35;100.00;64108.03;5013782;28;46524;-48
2022/06/23 11:50:02;;;;;;;;;5.80;5.80;;;;;-149.35;100.00;64108.03;5015437;28;45403;-48
2022/06/23 11:52:43;;;;;;;;;8.20;8.00;;;;;-149.35;100.00;64108.03;5014412;28;45398;-52
2022/06/23 11:55:19;;;;;;;;;8.20;7.00;;;;;-149.35;100.00;64108.03;5015316;28;45563;-49
2022/06/23 11:58:07;;;;;;;;;6.60;6.60;;;;;-149.35;100.00;64108.03;5015497;28;46727;-47
2022/06/23 12:00:53;;;;;;;;;8.00;8.00;;;;;-149.35;100.00;64108.03;5013971;28;45322;-49